createdAt,value
2022-10-06T00:01:32.407Z,102250.59
2022-10-06T00:04:00.737Z,102252.56
2022-10-06T00:06:29.145Z,102254.69
2022-10-06T00:08:58.904Z,102247.59
2022-10-06T00:11:27.353Z,102256.53
2022-10-06T00:13:55.724Z,102258.22
2022-10-06T00:16:24.605Z,102258.34
2022-10-06T00:18:53.006Z,102261.41
2022-10-06T00:21:21.346Z,102256.31
2022-10-06T00:23:49.582Z,102263.63
2022-10-06T00:26:19.243Z,102263.75
2022-10-06T00:28:48.529Z,102262.91
2022-10-06T00:31:17.462Z,102264.16
2022-10-06T00:33:45.853Z,102274.16
2022-10-06T00:36:15.330Z,102279.53
2022-10-06T00:38:43.797Z,102272.72
2022-10-06T00:41:14.954Z,102267.63
2022-10-06T00:43:51.028Z,102269.56
2022-10-06T00:46:33.845Z,102260.06
2022-10-06T00:49:07.705Z,102231.97
2022-10-06T00:51:40.324Z,102269.56
2022-10-06T00:54:09.508Z,102258.97
2022-10-06T00:56:40.235Z,102258.22
2022-10-06T00:59:13.545Z,102262.75
2022-10-06T01:01:48.259Z,102263.47
2022-10-06T01:04:19.097Z,102255.41
2022-10-06T01:06:52.057Z,102232.47
2022-10-06T01:09:22.465Z,102242.69
2022-10-06T01:11:53.638Z,102243.81
2022-10-06T01:14:24.826Z,102239.16
2022-10-06T01:16:59.652Z,102245.66
2022-10-06T01:19:43.903Z,102237.22
2022-10-06T01:22:15.498Z,102237.34
2022-10-06T01:24:47.716Z,102224.59
2022-10-06T01:27:17.694Z,102233.25
2022-10-06T01:29:46.473Z,102211.31
2022-10-06T01:32:14.860Z,102229.84
2022-10-06T01:34:43.166Z,102224.22
2022-10-06T01:37:11.631Z,102218.97
2022-10-06T01:39:39.915Z,102216.41
2022-10-06T01:42:11.770Z,102211.88
2022-10-06T01:44:40.050Z,102180.56
2022-10-06T01:47:09.157Z,102209.56
2022-10-06T01:49:37.405Z,102205.31
2022-10-06T01:52:06.376Z,102214.22
2022-10-06T01:54:36.347Z,102210.56
2022-10-06T01:57:06.613Z,102206.28
2022-10-06T01:59:36.389Z,102201.28
2022-10-06T02:02:05.449Z,102203.50
2022-10-06T02:04:34.771Z,102190.72
2022-10-06T02:07:03.119Z,102196.47
2022-10-06T02:09:31.416Z,102200.38
2022-10-06T02:12:00.356Z,102199.41
2022-10-06T02:14:32.180Z,102199.28
2022-10-06T02:17:02.036Z,102203.78
2022-10-06T02:19:30.311Z,102199.28
2022-10-06T02:22:00.053Z,102198.41
2022-10-06T02:24:28.423Z,102192.31
2022-10-06T02:26:56.753Z,102176.47
2022-10-06T02:29:26.119Z,102195.13
2022-10-06T02:31:55.858Z,102194.50
2022-10-06T02:34:26.485Z,102185.13
2022-10-06T02:36:55.252Z,102182.31
2022-10-06T02:39:23.613Z,102181.34
2022-10-06T02:41:51.938Z,102183.28
2022-10-06T02:44:21.627Z,102184.28
2022-10-06T02:46:50.555Z,102189.03
2022-10-06T02:49:19.424Z,102196.97
2022-10-06T02:51:50.015Z,102184.66
2022-10-06T02:54:18.291Z,102180.53
2022-10-06T02:56:47.894Z,102186.50
2022-10-06T02:59:16.272Z,102182.34
2022-10-06T03:01:44.835Z,102186.38
2022-10-06T03:04:17.465Z,102189.19
2022-10-06T03:06:46.621Z,102188.44
2022-10-06T03:09:21.650Z,102181.38
2022-10-06T03:11:50.515Z,102175.56
2022-10-06T03:14:26.735Z,102175.06
2022-10-06T03:16:57.012Z,102167.00
2022-10-06T03:19:28.001Z,102167.00
2022-10-06T03:21:57.002Z,102151.66
2022-10-06T03:24:39.765Z,102168.84
2022-10-06T03:27:08.073Z,102168.97
2022-10-06T03:29:36.332Z,102172.75
2022-10-06T03:32:05.296Z,102175.31
2022-10-06T03:34:34.573Z,102178.72
2022-10-06T03:37:05.677Z,102181.53
2022-10-06T03:39:34.441Z,102177.97
2022-10-06T03:42:04.912Z,102186.16
2022-10-06T03:44:35.154Z,102183.72
2022-10-06T03:47:05.166Z,102183.81
2022-10-06T03:49:34.206Z,102189.44
2022-10-06T03:52:02.481Z,102190.41
2022-10-06T03:54:35.585Z,102188.44
2022-10-06T03:57:05.528Z,102198.94
2022-10-06T03:59:35.072Z,102197.22
2022-10-06T04:02:06.280Z,102203.56
2022-10-06T04:04:39.401Z,102202.94
2022-10-06T04:07:12.431Z,102201.88
2022-10-06T04:09:42.059Z,102197.72
2022-10-06T04:12:13.599Z,102210.28
2022-10-06T04:14:44.922Z,102205.16
2022-10-06T04:17:13.265Z,102196.63
2022-10-06T04:19:42.825Z,102195.66
2022-10-06T04:22:11.129Z,102202.09
2022-10-06T04:24:39.434Z,102197.59
2022-10-06T04:27:25.012Z,102211.84
2022-10-06T04:30:08.568Z,102196.00
2022-10-06T04:32:38.214Z,102189.66
2022-10-06T04:35:07.085Z,102201.88
2022-10-06T04:37:35.456Z,102205.63
2022-10-06T04:40:05.094Z,102194.91
2022-10-06T04:42:35.440Z,102196.00
2022-10-06T04:45:10.602Z,102182.81
2022-10-06T04:47:40.739Z,102189.16
2022-10-06T04:50:09.563Z,102192.66
2022-10-06T04:52:41.122Z,102202.06
2022-10-06T04:55:11.204Z,102196.59
2022-10-06T04:57:39.812Z,102199.16
2022-10-06T05:00:25.335Z,102206.94
2022-10-06T05:02:55.833Z,102194.75
2022-10-06T05:05:24.918Z,102207.66
2022-10-06T05:07:54.870Z,102198.88
2022-10-06T05:10:23.179Z,102206.81
2022-10-06T05:12:51.621Z,102211.31
2022-10-06T05:15:21.748Z,102213.59
2022-10-06T05:17:50.353Z,102221.09
2022-10-06T05:20:22.889Z,102214.84
2022-10-06T05:22:52.181Z,102213.25
2022-10-06T05:25:20.702Z,102215.44
2022-10-06T05:27:49.129Z,102211.06
2022-10-06T05:30:17.562Z,102205.69
2022-10-06T05:32:50.504Z,102207.63
2022-10-06T05:35:19.660Z,102215.16
2022-10-06T05:37:48.072Z,102212.75
2022-10-06T05:40:17.373Z,102221.03
2022-10-06T05:42:45.654Z,102219.31
2022-10-06T05:45:14.130Z,102221.03
2022-10-06T05:47:42.492Z,102220.66
2022-10-06T05:50:13.029Z,102222.97
2022-10-06T05:52:42.930Z,102222.00
2022-10-06T05:55:11.515Z,102217.63
2022-10-06T05:57:40.694Z,102215.16
2022-10-06T06:00:10.018Z,102206.91
2022-10-06T06:02:41.356Z,102206.28
2022-10-06T06:05:12.574Z,102215.78
2022-10-06T06:07:41.606Z,102211.16
2022-10-06T06:10:10.621Z,102208.88
2022-10-06T06:12:38.953Z,102214.25
2022-10-06T06:15:34.997Z,102221.66
2022-10-06T06:18:06.154Z,102225.31
2022-10-06T06:20:35.950Z,102228.72
2022-10-06T06:23:04.444Z,102226.50
2022-10-06T06:25:33.419Z,102234.81
2022-10-06T06:28:01.754Z,102241.78
2022-10-06T06:30:30.039Z,102240.81
2022-10-06T06:33:00.469Z,102244.84
2022-10-06T06:35:29.619Z,102245.31
2022-10-06T06:37:59.920Z,102245.72
2022-10-06T06:40:29.330Z,102249.53
2022-10-06T06:42:57.675Z,102246.59
2022-10-06T06:45:42.072Z,102249.53
2022-10-06T06:48:21.196Z,102256.25
2022-10-06T06:50:58.300Z,102244.03
2022-10-06T06:53:28.863Z,102238.88
2022-10-06T06:55:59.628Z,102247.03
2022-10-06T06:58:28.553Z,102253.28
2022-10-06T07:01:05.239Z,102258.00
2022-10-06T07:03:55.999Z,102266.16
2022-10-06T07:06:28.069Z,102260.84
2022-10-06T07:09:00.683Z,102260.63
2022-10-06T07:11:32.179Z,102265.31
2022-10-06T07:14:03.296Z,102266.28
2022-10-06T07:16:50.347Z,102184.50
2022-10-06T07:19:37.825Z,102285.63
2022-10-06T07:22:32.708Z,102270.56
2022-10-06T07:25:12.332Z,102282.84
2022-10-06T07:27:45.982Z,102287.28
2022-10-06T07:30:19.452Z,102288.78
2022-10-06T07:32:52.317Z,102282.84
2022-10-06T07:35:23.456Z,102281.72
2022-10-06T07:37:53.340Z,102284.16
2022-10-06T07:40:25.247Z,102278.63
2022-10-06T07:42:53.529Z,102284.56
2022-10-06T07:45:39.644Z,102281.69
2022-10-06T07:48:14.396Z,102287.59
2022-10-06T07:50:45.757Z,102289.19
2022-10-06T07:53:15.166Z,102269.94
2022-10-06T07:55:49.789Z,102288.75
2022-10-06T07:58:24.162Z,102284.09
2022-10-06T08:00:53.794Z,102289.06
2022-10-06T08:03:22.627Z,102276.22
2022-10-06T08:05:59.042Z,102277.31
2022-10-06T08:08:27.794Z,102280.22
2022-10-06T08:11:01.879Z,102243.22
2022-10-06T08:13:32.309Z,102279.22
2022-10-06T08:16:06.151Z,102284.13
2022-10-06T08:18:45.909Z,102281.56
2022-10-06T08:21:17.006Z,102288.38
2022-10-06T08:23:46.570Z,102287.72
2022-10-06T08:26:17.913Z,102277.06
2022-10-06T08:28:47.879Z,102288.59
2022-10-06T08:31:17.880Z,102282.34
2022-10-06T08:33:47.290Z,102277.28
2022-10-06T08:36:17.336Z,102290.47
2022-10-06T08:38:50.151Z,102286.34
2022-10-06T08:41:22.603Z,102293.09
2022-10-06T08:43:57.226Z,102289.53
2022-10-06T08:46:29.306Z,102285.97
2022-10-06T08:48:58.941Z,102286.34
2022-10-06T08:51:48.025Z,102281.13
2022-10-06T08:54:26.054Z,102278.44
2022-10-06T08:57:03.974Z,102280.50
2022-10-06T08:59:35.320Z,102275.81
2022-10-06T09:02:05.942Z,102269.53
2022-10-06T09:04:35.624Z,102270.06
2022-10-06T09:07:11.326Z,102267.53
2022-10-06T09:10:04.842Z,102269.25
2022-10-06T09:12:42.374Z,102270.59
2022-10-06T09:15:24.875Z,102257.03
2022-10-06T09:18:01.019Z,102263.13
2022-10-06T09:20:35.407Z,102265.97
2022-10-06T09:23:05.774Z,102257.84
2022-10-06T09:25:34.862Z,102251.56
2022-10-06T09:28:05.987Z,102258.00
2022-10-06T09:30:34.288Z,102266.84
2022-10-06T09:33:04.611Z,102260.72
2022-10-06T09:35:36.615Z,102261.06
2022-10-06T09:38:08.990Z,102253.25
2022-10-06T09:40:42.077Z,102218.50
2022-10-06T09:43:21.603Z,102266.66
2022-10-06T09:45:51.624Z,102267.50
2022-10-06T09:48:24.856Z,102262.09
2022-10-06T09:51:13.979Z,102247.81
2022-10-06T09:53:42.747Z,102246.81
2022-10-06T09:56:15.926Z,102251.38
2022-10-06T09:58:57.632Z,102244.81
2022-10-06T10:01:32.648Z,102218.97
2022-10-06T10:04:22.690Z,102246.50
2022-10-06T10:06:51.975Z,102248.84
2022-10-06T10:09:28.954Z,102253.56
2022-10-06T10:12:28.723Z,102256.63
2022-10-06T10:15:02.032Z,102253.75
2022-10-06T10:17:39.143Z,102248.78
2022-10-06T10:20:20.903Z,102237.88
2022-10-06T10:22:50.174Z,102236.66
2022-10-06T10:25:41.663Z,102238.78
2022-10-06T10:28:24.704Z,102233.00
2022-10-06T10:31:03.677Z,102223.41
2022-10-06T10:33:49.617Z,102216.16
2022-10-06T10:36:36.100Z,102213.03
2022-10-06T10:39:12.418Z,102204.44
2022-10-06T10:41:49.148Z,102202.81
2022-10-06T10:44:29.639Z,102201.84
2022-10-06T10:47:12.032Z,102203.09
2022-10-06T10:49:44.549Z,102206.38
2022-10-06T10:52:18.936Z,102206.13
2022-10-06T10:54:50.658Z,102201.69
2022-10-06T10:57:23.143Z,102186.41
2022-10-06T10:59:59.950Z,102193.66
2022-10-06T11:02:30.094Z,102196.94
2022-10-06T11:05:03.986Z,102195.44
2022-10-06T11:07:39.191Z,102194.50
2022-10-06T11:10:14.539Z,102192.84
2022-10-06T11:13:11.496Z,102194.63
2022-10-06T11:15:55.989Z,102189.00
2022-10-06T11:18:37.820Z,102197.09
2022-10-06T11:21:12.543Z,102190.13
2022-10-06T11:23:51.063Z,102189.19
2022-10-06T11:26:31.860Z,102168.22
2022-10-06T11:29:10.688Z,102181.34
2022-10-06T11:31:46.128Z,102178.28
2022-10-06T11:34:16.071Z,102174.34
2022-10-06T11:36:50.500Z,102163.94
2022-10-06T11:39:25.296Z,102162.38
2022-10-06T11:42:02.188Z,102159.69
2022-10-06T11:44:38.593Z,102157.56
2022-10-06T11:47:10.402Z,102153.38
2022-10-06T11:49:52.210Z,102147.78
2022-10-06T11:52:56.514Z,102154.53
2022-10-06T11:55:26.605Z,102151.22
2022-10-06T11:58:42.217Z,102129.59
2022-10-06T12:01:50.089Z,102145.41
2022-10-06T12:04:24.099Z,102139.38
2022-10-06T12:06:56.960Z,102131.69
2022-10-06T12:09:53.481Z,102132.38
2022-10-06T12:12:47.708Z,102129.03
2022-10-06T12:17:05.675Z,102123.56
2022-10-06T12:18:42.546Z,102120.06
2022-10-06T12:21:30.698Z,102119.91
2022-10-06T12:24:19.957Z,102114.28
2022-10-06T12:26:58.109Z,102112.84
2022-10-06T12:29:39.381Z,102114.34
2022-10-06T12:32:19.960Z,102100.91
2022-10-06T12:34:58.201Z,102105.34
2022-10-06T12:37:42.739Z,102101.16
2022-10-06T12:40:48.010Z,102101.56
2022-10-06T12:43:50.738Z,102076.94
2022-10-06T12:46:27.089Z,102089.41
2022-10-06T12:49:05.138Z,102082.50
2022-10-06T12:51:35.256Z,101970.19
2022-10-06T12:54:11.383Z,102085.91
2022-10-06T12:56:42.927Z,102066.31
2022-10-06T12:59:26.494Z,102080.63
2022-10-06T13:01:58.340Z,102070.94
2022-10-06T13:04:40.614Z,102041.25
2022-10-06T13:07:16.509Z,102065.88
2022-10-06T13:09:46.017Z,102068.38
2022-10-06T13:12:24.417Z,102072.59
2022-10-06T13:15:15.770Z,102067.97
2022-10-06T13:17:47.378Z,102044.00
2022-10-06T13:20:38.055Z,102068.00
2022-10-06T13:23:20.326Z,102061.75
2022-10-06T13:25:50.752Z,102068.50
2022-10-06T13:28:26.461Z,102067.66
2022-10-06T13:30:56.737Z,102061.13
2022-10-06T13:33:26.982Z,102011.59
2022-10-06T13:35:55.914Z,102055.38
2022-10-06T13:38:24.214Z,102064.03
2022-10-06T13:41:07.533Z,102061.91
2022-10-06T13:43:41.127Z,102057.47
2022-10-06T13:46:12.645Z,102053.75
2022-10-06T13:48:46.933Z,102050.38
2022-10-06T13:51:21.145Z,102052.53
2022-10-06T13:53:51.614Z,102049.81
2022-10-06T13:59:33.492Z,102043.06
2022-10-06T14:02:16.443Z,102038.25
2022-10-06T14:04:44.908Z,102037.78
2022-10-06T14:07:14.883Z,102038.22
2022-10-06T14:09:43.754Z,102026.84
2022-10-06T14:12:15.830Z,102024.53
2022-10-06T14:14:49.913Z,101996.56
2022-10-06T14:17:23.792Z,101990.66
2022-10-06T14:19:52.322Z,102017.19
2022-10-06T14:22:31.468Z,102022.47
2022-10-06T14:24:59.860Z,102021.41
2022-10-06T14:27:28.084Z,102020.56
2022-10-06T14:29:58.782Z,102012.34
2022-10-06T14:32:27.291Z,102012.56
2022-10-06T14:34:55.698Z,102016.34
2022-10-06T14:37:23.967Z,102013.81
2022-10-06T14:39:52.771Z,102015.91
2022-10-06T14:42:24.510Z,102019.91
2022-10-06T14:44:52.923Z,102016.75
2022-10-06T14:47:22.537Z,102013.81
2022-10-06T14:49:50.827Z,102019.06
2022-10-06T14:52:19.487Z,102015.69
2022-10-06T14:54:47.891Z,102018.63
2022-10-06T14:57:16.076Z,102001.59
2022-10-06T14:59:44.424Z,102014.00
2022-10-06T15:02:12.671Z,102009.78
2022-10-06T15:04:42.392Z,102010.63
2022-10-06T15:07:28.016Z,102006.00
2022-10-06T15:09:57.292Z,101999.91
2022-10-06T15:12:25.556Z,102008.28
2022-10-06T15:14:54.073Z,102008.47
2022-10-06T15:17:23.094Z,102003.63
2022-10-06T15:19:52.828Z,102013.50
2022-10-06T15:22:22.107Z,101997.72
2022-10-06T15:24:51.523Z,102009.50
2022-10-06T15:27:37.069Z,102011.19
2022-10-06T15:30:06.296Z,102004.88
2022-10-06T15:32:34.603Z,102004.22
2022-10-06T15:35:04.270Z,101999.00
2022-10-06T15:37:32.533Z,101951.00
2022-10-06T15:40:01.586Z,101995.19
2022-10-06T15:42:29.915Z,101998.53
2022-10-06T15:44:58.335Z,101953.69
2022-10-06T15:47:26.896Z,101991.78
2022-10-06T15:49:55.218Z,101990.50
2022-10-06T15:52:24.866Z,101999.75
2022-10-06T15:54:53.060Z,102004.53
2022-10-06T15:57:22.258Z,102008.06
2022-10-06T15:59:51.781Z,102010.53
2022-10-06T16:02:21.143Z,102003.81
2022-10-06T16:05:16.954Z,102004.22
2022-10-06T16:07:46.622Z,102006.88
2022-10-06T16:10:15.030Z,102002.00
2022-10-06T16:12:43.316Z,101999.63
2022-10-06T16:15:12.165Z,102002.28
2022-10-06T16:17:40.379Z,102007.91
2022-10-06T16:20:11.676Z,102002.81
2022-10-06T16:22:40.375Z,102016.34
2022-10-06T16:25:10.968Z,102009.53
2022-10-06T16:27:39.579Z,101995.56
2022-10-06T16:30:09.545Z,102013.41
2022-10-06T16:32:38.100Z,102012.66
2022-10-06T16:35:07.646Z,102015.13
2022-10-06T16:37:35.951Z,102017.13
2022-10-06T16:40:04.373Z,102019.97
2022-10-06T16:42:34.116Z,102022.81
2022-10-06T16:45:02.355Z,102026.09
2022-10-06T16:47:30.670Z,102000.94
2022-10-06T16:49:59.985Z,102012.63
2022-10-06T16:52:28.366Z,102025.50
2022-10-06T16:54:57.550Z,102023.53
2022-10-06T16:57:26.103Z,102031.84
2022-10-06T16:59:55.823Z,102031.94
2022-10-06T17:02:24.112Z,102031.66
2022-10-06T17:04:52.324Z,102035.28
2022-10-06T17:07:20.685Z,102044.59
2022-10-06T17:10:15.358Z,102039.22
2022-10-06T17:12:37.727Z,102047.66
2022-10-06T17:15:08.660Z,102046.31
2022-10-06T17:17:37.283Z,102034.94
2022-10-06T17:20:06.973Z,102055.63
2022-10-06T17:22:35.298Z,102058.69
2022-10-06T17:25:03.539Z,102057.38
2022-10-06T17:27:32.821Z,102065.91
2022-10-06T17:30:01.063Z,102062.31
2022-10-06T17:32:30.823Z,102073.25
2022-10-06T17:34:59.069Z,102068.94
2022-10-06T17:37:27.980Z,102072.00
2022-10-06T17:39:56.209Z,102078.28
2022-10-06T17:42:24.643Z,102079.69
2022-10-06T17:44:53.905Z,102087.38
2022-10-06T17:47:22.208Z,102097.16
2022-10-06T17:49:51.868Z,102097.88
2022-10-06T17:52:24.054Z,102088.06
2022-10-06T17:54:54.534Z,102101.81
2022-10-06T17:57:22.849Z,102104.59
2022-10-06T17:59:51.708Z,102102.91
2022-10-06T18:02:20.135Z,102111.78
2022-10-06T18:04:50.443Z,102104.34
2022-10-06T18:07:20.122Z,102119.78
2022-10-06T18:10:08.354Z,102112.00
2022-10-06T18:12:38.776Z,102115.25
2022-10-06T18:15:09.070Z,102120.50
2022-10-06T18:17:37.308Z,102117.28
2022-10-06T18:20:06.475Z,102114.91
2022-10-06T18:22:36.119Z,102126.78
2022-10-06T18:25:04.753Z,102131.22
2022-10-06T18:27:33.479Z,102127.59
2022-10-06T18:30:01.811Z,102129.16
2022-10-06T18:38:09.256Z,102129.47
2022-10-06T18:40:37.530Z,102131.66
2022-10-06T18:43:06.273Z,102140.28
2022-10-06T18:45:52.041Z,102139.78
2022-10-06T18:48:37.775Z,102148.06
2022-10-06T18:51:06.434Z,102134.75
2022-10-06T18:53:36.388Z,102147.78
2022-10-06T18:56:05.224Z,102150.94
2022-10-06T18:58:33.644Z,102147.53
2022-10-06T19:01:05.602Z,102146.16
2022-10-06T19:03:34.226Z,102155.47
2022-10-06T19:06:02.457Z,102149.53
2022-10-06T19:08:30.866Z,102141.97
2022-10-06T19:11:22.861Z,102146.09
2022-10-06T19:13:52.307Z,102146.88
2022-10-06T19:16:21.065Z,102150.88
2022-10-06T19:18:49.443Z,102148.28
2022-10-06T19:21:17.685Z,102155.72
2022-10-06T19:23:46.312Z,102159.25
2022-10-06T19:26:15.989Z,102154.69
2022-10-06T19:28:45.252Z,102156.81
2022-10-06T19:31:20.098Z,102164.34
2022-10-06T19:33:49.402Z,102162.75
2022-10-06T19:36:18.553Z,102166.78
2022-10-06T19:38:46.951Z,102163.06
2022-10-06T19:41:35.453Z,102160.69
2022-10-06T19:44:04.856Z,102166.63
2022-10-06T19:46:33.197Z,102157.84
2022-10-06T19:49:05.786Z,102167.25
2022-10-06T19:51:35.159Z,102161.78
2022-10-06T19:54:04.818Z,102163.41
2022-10-06T19:56:34.714Z,102164.56
2022-10-06T19:59:04.143Z,102167.09
2022-10-06T20:01:33.073Z,102170.75
2022-10-06T20:04:03.686Z,102170.13
2022-10-06T20:06:32.222Z,102158.91
2022-10-06T20:09:05.723Z,102151.66
2022-10-06T20:11:36.276Z,102155.00
2022-10-06T20:14:04.752Z,102162.16
2022-10-06T20:16:33.413Z,102170.50
2022-10-06T20:19:01.811Z,102148.81
2022-10-06T20:21:31.467Z,102157.00
2022-10-06T20:24:01.638Z,102153.50
2022-10-06T20:26:32.305Z,102157.81
2022-10-06T20:29:03.581Z,102158.38
2022-10-06T20:31:33.582Z,102149.22
2022-10-06T20:34:03.575Z,102171.97
2022-10-06T20:36:33.023Z,102150.16
2022-10-06T20:39:20.985Z,102158.75
2022-10-06T20:41:50.791Z,102156.81
2022-10-06T20:44:20.889Z,102168.78
2022-10-06T20:46:49.690Z,102159.50
2022-10-06T20:49:18.658Z,102173.56
2022-10-06T20:51:51.970Z,102163.19
2022-10-06T20:54:21.454Z,102163.91
2022-10-06T20:56:51.171Z,102171.31
2022-10-06T20:59:21.663Z,102174.41
2022-10-06T21:01:52.170Z,102132.38
2022-10-06T21:04:21.244Z,102178.41
2022-10-06T21:06:50.986Z,102171.91
2022-10-06T21:09:20.577Z,102175.94
2022-10-06T21:11:49.726Z,102181.63
2022-10-06T21:14:18.391Z,102179.38
2022-10-06T21:16:49.921Z,102169.19
2022-10-06T21:19:19.900Z,102180.31
2022-10-06T21:21:50.685Z,102015.63
2022-10-06T21:24:19.377Z,102181.44
2022-10-06T21:26:48.381Z,102179.44
2022-10-06T21:29:17.309Z,102177.03
2022-10-06T21:31:47.832Z,102183.03
2022-10-06T21:34:16.214Z,102182.59
2022-10-06T21:36:44.542Z,102178.06
2022-10-06T21:39:13.740Z,102173.16
2022-10-06T21:41:42.071Z,102175.28
2022-10-06T21:44:11.853Z,102177.69
2022-10-06T21:46:41.658Z,102173.59
2022-10-06T21:49:13.414Z,102168.75
2022-10-06T21:51:43.826Z,102172.78
2022-10-06T21:54:12.056Z,102171.59
2022-10-06T21:56:40.334Z,102173.88
2022-10-06T21:59:09.099Z,102151.75
2022-10-06T22:01:38.870Z,102168.75
2022-10-06T22:04:07.490Z,102162.66
2022-10-06T22:06:38.245Z,102165.63
2022-10-06T22:09:08.077Z,102158.13
2022-10-06T22:11:38.844Z,102167.66
2022-10-06T22:14:08.814Z,102168.78
2022-10-06T22:16:38.486Z,102160.97
2022-10-06T22:19:09.105Z,102158.84
2022-10-06T22:21:41.485Z,102153.75
2022-10-06T22:24:11.609Z,102152.75
2022-10-06T22:26:41.852Z,102009.38
2022-10-06T22:29:12.361Z,102153.19
2022-10-06T22:31:42.713Z,102151.03
2022-10-06T22:34:13.534Z,102160.38
2022-10-06T22:36:43.631Z,102155.84
2022-10-06T22:39:12.083Z,102146.75
2022-10-06T22:41:40.479Z,102151.16
2022-10-06T22:44:08.837Z,102155.69
2022-10-06T22:46:37.552Z,102152.41
2022-10-06T22:49:06.423Z,102153.84
2022-10-06T22:51:34.933Z,102150.84
2022-10-06T22:54:05.072Z,102150.84
2022-10-06T22:56:35.071Z,102106.03
2022-10-06T22:59:03.648Z,102124.63
2022-10-06T23:01:32.089Z,102139.47
2022-10-06T23:04:00.357Z,102139.78
2022-10-06T23:06:31.379Z,102139.06
2022-10-06T23:09:01.136Z,102140.28
2022-10-06T23:11:30.827Z,102138.72
2022-10-06T23:13:59.144Z,102139.84
2022-10-06T23:16:27.436Z,102131.78
2022-10-06T23:18:56.117Z,102131.19
2022-10-06T23:21:27.825Z,102124.38
2022-10-06T23:23:59.785Z,102113.31
2022-10-06T23:26:30.588Z,102123.22
2022-10-06T23:29:01.833Z,102112.63
2022-10-06T23:31:30.870Z,102123.09
2022-10-06T23:33:59.407Z,102116.84
2022-10-06T23:36:27.827Z,102111.19
2022-10-06T23:38:56.096Z,102111.78
2022-10-06T23:41:24.494Z,102109.75
2022-10-06T23:43:54.182Z,102109.03
2022-10-06T23:46:22.594Z,102114.09
2022-10-06T23:48:50.856Z,102113.50
2022-10-06T23:51:20.095Z,102116.06
2022-10-06T23:53:49.465Z,102112.97
2022-10-06T23:56:19.088Z,102108.59
2022-10-06T23:58:48.573Z,102108.59
